sensor_id;sensor_type;location;lat;lon;timestamp;pressure;altitude;pressure_sealevel;temperature;humidity
19795;BME280;10057;59.402;17.866;2022-07-29T00:02:14;102019.47;;;14.79;57.56
19795;BME280;10057;59.402;17.866;2022-07-29T00:04:41;102017.94;;;14.72;57.77
19795;BME280;10057;59.402;17.866;2022-07-29T00:07:08;102014.56;;;14.67;58.06
19795;BME280;10057;59.402;17.866;2022-07-29T00:09:35;102018.25;;;14.63;58.19
19795;BME280;10057;59.402;17.866;2022-07-29T00:12:18;102018.38;;;14.60;58.24
19795;BME280;10057;59.402;17.866;2022-07-29T00:14:55;102015.75;;;14.58;58.20
19795;BME280;10057;59.402;17.866;2022-07-29T00:17:23;102016.59;;;14.59;58.29
19795;BME280;10057;59.402;17.866;2022-07-29T00:19:49;102010.22;;;14.63;58.33
19795;BME280;10057;59.402;17.866;2022-07-29T00:22:16;102010.19;;;14.64;58.37
19795;BME280;10057;59.402;17.866;2022-07-29T00:24:43;102024.34;;;14.66;58.29
19795;BME280;10057;59.402;17.866;2022-07-29T00:27:10;102011.78;;;14.70;58.19
19795;BME280;10057;59.402;17.866;2022-07-29T00:29:36;102013.53;;;14.71;58.08
19795;BME280;10057;59.402;17.866;2022-07-29T00:32:06;102005.50;;;14.71;58.01
19795;BME280;10057;59.402;17.866;2022-07-29T00:34:33;102011.72;;;14.72;57.99
19795;BME280;10057;59.402;17.866;2022-07-29T00:37:18;102010.13;;;14.66;58.22
19795;BME280;10057;59.402;17.866;2022-07-29T00:39:45;102002.28;;;14.61;58.25
19795;BME280;10057;59.402;17.866;2022-07-29T00:42:13;102006.88;;;14.56;58.39
19795;BME280;10057;59.402;17.866;2022-07-29T00:44:41;102003.53;;;14.51;58.55
19795;BME280;10057;59.402;17.866;2022-07-29T00:47:10;102001.28;;;14.37;58.84
19795;BME280;10057;59.402;17.866;2022-07-29T00:49:38;102001.75;;;14.22;59.05
19795;BME280;10057;59.402;17.866;2022-07-29T00:52:06;101997.72;;;14.10;59.09
19795;BME280;10057;59.402;17.866;2022-07-29T00:54:34;102002.34;;;14.05;59.68
19795;BME280;10057;59.402;17.866;2022-07-29T00:57:10;102003.47;;;13.96;59.34
19795;BME280;10057;59.402;17.866;2022-07-29T00:59:37;102001.00;;;13.90;59.89
19795;BME280;10057;59.402;17.866;2022-07-29T01:02:04;102002.03;;;13.86;60.00
19795;BME280;10057;59.402;17.866;2022-07-29T01:04:31;101997.66;;;13.84;59.99
19795;BME280;10057;59.402;17.866;2022-07-29T01:07:01;102000.31;;;13.84;60.02
19795;BME280;10057;59.402;17.866;2022-07-29T01:09:29;101998.56;;;13.83;60.21
19795;BME280;10057;59.402;17.866;2022-07-29T01:12:12;102005.72;;;13.82;60.15
19795;BME280;10057;59.402;17.866;2022-07-29T01:14:40;101999.53;;;13.80;59.93
19795;BME280;10057;59.402;17.866;2022-07-29T01:31:11;102004.94;;;13.79;60.30
19795;BME280;10057;59.402;17.866;2022-07-29T01:33:56;101999.59;;;13.79;60.23
19795;BME280;10057;59.402;17.866;2022-07-29T01:36:33;101997.75;;;13.81;60.20
19795;BME280;10057;59.402;17.866;2022-07-29T01:39:08;101996.88;;;13.80;60.13
19795;BME280;10057;59.402;17.866;2022-07-29T01:41:40;102005.84;;;13.78;60.45
19795;BME280;10057;59.402;17.866;2022-07-29T01:44:18;101998.03;;;13.71;60.54
19795;BME280;10057;59.402;17.866;2022-07-29T01:46:52;101999.88;;;13.69;60.56
19795;BME280;10057;59.402;17.866;2022-07-29T01:49:25;101999.88;;;13.69;60.67
19795;BME280;10057;59.402;17.866;2022-07-29T01:52:05;101998.13;;;13.68;60.75
19795;BME280;10057;59.402;17.866;2022-07-29T01:54:41;102003.56;;;13.65;60.62
19795;BME280;10057;59.402;17.866;2022-07-29T01:57:14;102002.78;;;13.62;60.81
19795;BME280;10057;59.402;17.866;2022-07-29T01:59:45;102003.00;;;13.54;60.51
19795;BME280;10057;59.402;17.866;2022-07-29T02:02:15;102009.31;;;13.50;60.98
19795;BME280;10057;59.402;17.866;2022-07-29T02:04:44;102005.84;;;13.48;61.16
19795;BME280;10057;59.402;17.866;2022-07-29T02:07:17;102010.34;;;13.46;61.13
19795;BME280;10057;59.402;17.866;2022-07-29T02:09:47;102001.63;;;13.41;61.29
19795;BME280;10057;59.402;17.866;2022-07-29T02:12:16;102012.38;;;13.38;61.39
19795;BME280;10057;59.402;17.866;2022-07-29T02:14:47;101996.47;;;13.35;61.24
19795;BME280;10057;59.402;17.866;2022-07-29T02:17:16;102008.94;;;13.33;61.48
19795;BME280;10057;59.402;17.866;2022-07-29T02:19:46;102005.56;;;13.27;61.32
19795;BME280;10057;59.402;17.866;2022-07-29T02:22:14;102004.75;;;13.22;61.61
19795;BME280;10057;59.402;17.866;2022-07-29T02:24:43;102012.84;;;13.19;61.48
19795;BME280;10057;59.402;17.866;2022-07-29T02:27:11;102019.09;;;13.18;61.46
19795;BME280;10057;59.402;17.866;2022-07-29T02:29:39;102015.63;;;13.15;61.38
19795;BME280;10057;59.402;17.866;2022-07-29T02:32:07;102020.25;;;13.08;61.43
19795;BME280;10057;59.402;17.866;2022-07-29T02:34:38;102011.53;;;13.03;61.64
19795;BME280;10057;59.402;17.866;2022-07-29T02:37:09;102012.44;;;13.02;61.73
19795;BME280;10057;59.402;17.866;2022-07-29T02:39:36;102018.69;;;13.01;61.70
19795;BME280;10057;59.402;17.866;2022-07-29T02:42:07;102013.34;;;13.01;61.71
19795;BME280;10057;59.402;17.866;2022-07-29T02:44:34;102006.22;;;13.03;62.19
19795;BME280;10057;59.402;17.866;2022-07-29T02:47:03;102014.13;;;13.06;62.07
19795;BME280;10057;59.402;17.866;2022-07-29T02:49:38;102018.53;;;13.07;62.02
19795;BME280;10057;59.402;17.866;2022-07-29T02:52:21;102022.09;;;13.06;61.75
19795;BME280;10057;59.402;17.866;2022-07-29T02:55:07;102021.28;;;13.04;61.92
19795;BME280;10057;59.402;17.866;2022-07-29T02:57:43;102016.78;;;13.06;62.12
19795;BME280;10057;59.402;17.866;2022-07-29T03:00:22;102018.44;;;13.10;62.13
19795;BME280;10057;59.402;17.866;2022-07-29T03:02:52;102021.19;;;13.07;61.96
19795;BME280;10057;59.402;17.866;2022-07-29T03:05:21;102024.06;;;12.99;62.27
19795;BME280;10057;59.402;17.866;2022-07-29T03:08:01;102025.94;;;12.96;62.42
19795;BME280;10057;59.402;17.866;2022-07-29T03:10:30;102028.59;;;12.96;62.27
19795;BME280;10057;59.402;17.866;2022-07-29T03:12:58;102026.97;;;12.90;62.24
19795;BME280;10057;59.402;17.866;2022-07-29T03:15:25;102038.56;;;12.88;62.26
19795;BME280;10057;59.402;17.866;2022-07-29T03:17:52;102028.75;;;12.90;62.81
19795;BME280;10057;59.402;17.866;2022-07-29T03:20:20;102036.59;;;12.96;62.90
19795;BME280;10057;59.402;17.866;2022-07-29T03:22:47;102042.72;;;12.99;62.69
19795;BME280;10057;59.402;17.866;2022-07-29T03:25:16;102032.88;;;13.01;62.62
19795;BME280;10057;59.402;17.866;2022-07-29T03:27:44;102040.00;;;13.01;62.63
19795;BME280;10057;59.402;17.866;2022-07-29T03:30:12;102034.66;;;13.01;62.68
19795;BME280;10057;59.402;17.866;2022-07-29T03:32:48;102043.59;;;13.00;62.94
19795;BME280;10057;59.402;17.866;2022-07-29T03:35:20;102040.16;;;12.95;62.75
19795;BME280;10057;59.402;17.866;2022-07-29T03:37:47;102056.13;;;12.95;63.39
19795;BME280;10057;59.402;17.866;2022-07-29T03:40:19;102043.75;;;12.94;63.23
19795;BME280;10057;59.402;17.866;2022-07-29T03:42:49;102045.47;;;12.95;63.21
19795;BME280;10057;59.402;17.866;2022-07-29T03:45:18;102040.06;;;12.99;63.28
19795;BME280;10057;59.402;17.866;2022-07-29T03:48:01;102045.31;;;13.01;63.01
19795;BME280;10057;59.402;17.866;2022-07-29T03:50:30;102047.06;;;13.02;62.98
19795;BME280;10057;59.402;17.866;2022-07-29T03:52:57;102039.84;;;13.07;63.34
19795;BME280;10057;59.402;17.866;2022-07-29T03:55:25;102031.75;;;13.10;62.97
19795;BME280;10057;59.402;17.866;2022-07-29T03:57:52;102038.69;;;13.16;63.34
19795;BME280;10057;59.402;17.866;2022-07-29T04:00:19;102040.41;;;13.18;63.06
19795;BME280;10057;59.402;17.866;2022-07-29T04:02:47;102041.34;;;13.16;63.26
19795;BME280;10057;59.402;17.866;2022-07-29T04:05:18;102049.31;;;13.17;63.46
19795;BME280;10057;59.402;17.866;2022-07-29T04:07:46;102051.00;;;13.21;63.23
19795;BME280;10057;59.402;17.866;2022-07-29T04:10:13;102051.78;;;13.26;63.33
19795;BME280;10057;59.402;17.866;2022-07-29T04:12:42;102042.84;;;13.27;63.46
19795;BME280;10057;59.402;17.866;2022-07-29T04:15:09;102054.25;;;13.33;63.06
19795;BME280;10057;59.402;17.866;2022-07-29T04:17:36;102054.16;;;13.37;63.27
19795;BME280;10057;59.402;17.866;2022-07-29T04:20:04;102052.25;;;13.41;63.41
19795;BME280;10057;59.402;17.866;2022-07-29T04:22:31;102048.63;;;13.43;63.45
19795;BME280;10057;59.402;17.866;2022-07-29T04:24:57;102053.00;;;13.46;63.51
19795;BME280;10057;59.402;17.866;2022-07-29T04:27:29;102044.88;;;13.50;63.57
19795;BME280;10057;59.402;17.866;2022-07-29T04:29:56;102047.41;;;13.55;63.35
19795;BME280;10057;59.402;17.866;2022-07-29T04:32:26;102048.19;;;13.59;63.36
19795;BME280;10057;59.402;17.866;2022-07-29T04:34:53;102045.38;;;13.63;63.54
19795;BME280;10057;59.402;17.866;2022-07-29T04:37:19;102062.13;;;13.68;63.45
19795;BME280;10057;59.402;17.866;2022-07-29T04:39:46;102055.72;;;13.74;63.58
19795;BME280;10057;59.402;17.866;2022-07-29T04:42:13;102047.53;;;13.82;63.49
19795;BME280;10057;59.402;17.866;2022-07-29T04:44:39;102060.56;;;13.91;63.41
19795;BME280;10057;59.402;17.866;2022-07-29T04:47:08;102054.13;;;13.98;63.13
19795;BME280;10057;59.402;17.866;2022-07-29T04:49:38;102056.50;;;14.07;63.16
19795;BME280;10057;59.402;17.866;2022-07-29T04:52:05;102055.31;;;14.17;63.24
19795;BME280;10057;59.402;17.866;2022-07-29T04:54:32;102050.63;;;14.26;63.08
19795;BME280;10057;59.402;17.866;2022-07-29T04:56:59;102056.59;;;14.32;63.06
19795;BME280;10057;59.402;17.866;2022-07-29T04:59:26;102054.66;;;14.37;63.35
19795;BME280;10057;59.402;17.866;2022-07-29T05:01:53;102055.34;;;14.44;63.12
19795;BME280;10057;59.402;17.866;2022-07-29T05:04:20;102063.09;;;14.53;63.15
19795;BME280;10057;59.402;17.866;2022-07-29T05:06:47;102050.34;;;14.61;63.15
19795;BME280;10057;59.402;17.866;2022-07-29T05:09:13;102053.69;;;14.68;63.27
19795;BME280;10057;59.402;17.866;2022-07-29T05:11:40;102053.53;;;14.73;63.06
19795;BME280;10057;59.402;17.866;2022-07-29T05:14:07;102055.91;;;14.82;63.16
19795;BME280;10057;59.402;17.866;2022-07-29T05:16:33;102052.91;;;14.91;63.05
19795;BME280;10057;59.402;17.866;2022-07-29T05:19:00;102053.50;;;14.99;63.05
19795;BME280;10057;59.402;17.866;2022-07-29T05:21:27;102053.25;;;15.07;63.00
19795;BME280;10057;59.402;17.866;2022-07-29T05:23:54;102053.00;;;15.14;63.08
19795;BME280;10057;59.402;17.866;2022-07-29T05:26:20;102052.72;;;15.22;63.13
19795;BME280;10057;59.402;17.866;2022-07-29T05:28:47;102056.84;;;15.31;63.19
19795;BME280;10057;59.402;17.866;2022-07-29T05:31:13;102060.13;;;15.39;63.14
19795;BME280;10057;59.402;17.866;2022-07-29T05:33:41;102062.44;;;15.48;63.14
19795;BME280;10057;59.402;17.866;2022-07-29T05:36:08;102066.63;;;15.55;62.93
19795;BME280;10057;59.402;17.866;2022-07-29T05:38:35;102064.56;;;15.63;63.03
19795;BME280;10057;59.402;17.866;2022-07-29T05:41:03;102072.28;;;15.73;63.15
19795;BME280;10057;59.402;17.866;2022-07-29T05:43:30;102071.13;;;15.80;63.00
19795;BME280;10057;59.402;17.866;2022-07-29T05:45:57;102067.19;;;15.88;62.95
19795;BME280;10057;59.402;17.866;2022-07-29T05:48:24;102071.38;;;15.96;63.03
19795;BME280;10057;59.402;17.866;2022-07-29T05:50:51;102072.84;;;16.04;62.76
19795;BME280;10057;59.402;17.866;2022-07-29T05:53:17;102069.00;;;16.11;62.78
19795;BME280;10057;59.402;17.866;2022-07-29T05:55:47;102065.06;;;16.20;62.70
19795;BME280;10057;59.402;17.866;2022-07-29T05:58:14;102063.91;;;16.27;62.71
19795;BME280;10057;59.402;17.866;2022-07-29T06:00:40;102066.28;;;16.35;62.47
19795;BME280;10057;59.402;17.866;2022-07-29T06:03:07;102073.13;;;16.42;62.24
19795;BME280;10057;59.402;17.866;2022-07-29T06:05:34;102069.25;;;16.49;62.20
19795;BME280;10057;59.402;17.866;2022-07-29T06:08:00;102068.94;;;16.57;61.91
19795;BME280;10057;59.402;17.866;2022-07-29T06:10:27;102072.22;;;16.64;61.68
19795;BME280;10057;59.402;17.866;2022-07-29T06:12:54;102071.03;;;16.71;61.41
19795;BME280;10057;59.402;17.866;2022-07-29T06:15:20;102074.31;;;16.79;60.76
19795;BME280;10057;59.402;17.866;2022-07-29T06:17:47;102079.34;;;16.87;60.29
19795;BME280;10057;59.402;17.866;2022-07-29T06:20:30;102078.06;;;16.95;59.66
19795;BME280;10057;59.402;17.866;2022-07-29T06:22:58;102084.91;;;17.02;59.60
19795;BME280;10057;59.402;17.866;2022-07-29T06:25:24;102080.16;;;17.09;58.83
19795;BME280;10057;59.402;17.866;2022-07-29T06:27:51;102079.88;;;17.15;58.60
19795;BME280;10057;59.402;17.866;2022-07-29T06:30:18;102086.72;;;17.22;57.96
19795;BME280;10057;59.402;17.866;2022-07-29T06:32:45;102084.63;;;17.29;57.30
19795;BME280;10057;59.402;17.866;2022-07-29T06:35:12;102085.31;;;17.34;57.05
19795;BME280;10057;59.402;17.866;2022-07-29T06:37:58;102092.94;;;17.43;56.86
19795;BME280;10057;59.402;17.866;2022-07-29T06:40:25;102096.31;;;17.48;56.70
19795;BME280;10057;59.402;17.866;2022-07-29T06:43:11;102103.06;;;17.57;56.34
19795;BME280;10057;59.402;17.866;2022-07-29T06:45:38;102100.19;;;17.62;56.00
19795;BME280;10057;59.402;17.866;2022-07-29T06:48:08;102097.22;;;17.68;55.27
19795;BME280;10057;59.402;17.866;2022-07-29T06:50:35;102094.19;;;17.75;54.94
19795;BME280;10057;59.402;17.866;2022-07-29T06:53:02;102099.38;;;17.80;54.05
19795;BME280;10057;59.402;17.866;2022-07-29T06:55:29;102101.84;;;17.85;53.60
19795;BME280;10057;59.402;17.866;2022-07-29T06:57:56;102101.63;;;17.89;53.22
19795;BME280;10057;59.402;17.866;2022-07-29T07:00:22;102104.03;;;17.95;52.88
19795;BME280;10057;59.402;17.866;2022-07-29T07:02:49;102100.25;;;17.99;52.72
19795;BME280;10057;59.402;17.866;2022-07-29T07:05:16;102106.28;;;18.05;52.08
19795;BME280;10057;59.402;17.866;2022-07-29T07:07:42;102105.25;;;18.07;52.17
19795;BME280;10057;59.402;17.866;2022-07-29T07:10:09;102103.31;;;18.11;51.75
19795;BME280;10057;59.402;17.866;2022-07-29T07:12:36;102103.16;;;18.14;51.57
19795;BME280;10057;59.402;17.866;2022-07-29T07:15:03;102105.47;;;18.21;51.55
19795;BME280;10057;59.402;17.866;2022-07-29T07:17:30;102106.06;;;18.28;51.06
19795;BME280;10057;59.402;17.866;2022-07-29T07:19:56;102102.22;;;18.34;51.01
19795;BME280;10057;59.402;17.866;2022-07-29T07:22:23;102100.09;;;18.40;50.37
19795;BME280;10057;59.402;17.866;2022-07-29T07:24:50;102103.56;;;18.42;50.20
19795;BME280;10057;59.402;17.866;2022-07-29T07:27:16;102105.19;;;18.46;49.87
19795;BME280;10057;59.402;17.866;2022-07-29T07:29:43;102093.19;;;18.54;49.60
19795;BME280;10057;59.402;17.866;2022-07-29T07:32:10;102092.88;;;18.60;49.39
19795;BME280;10057;59.402;17.866;2022-07-29T07:34:36;102101.34;;;18.69;49.40
19795;BME280;10057;59.402;17.866;2022-07-29T07:37:05;102092.00;;;18.78;49.61
19795;BME280;10057;59.402;17.866;2022-07-29T07:39:31;102090.56;;;18.88;49.32
19795;BME280;10057;59.402;17.866;2022-07-29T07:41:58;102087.44;;;18.98;49.02
19795;BME280;10057;59.402;17.866;2022-07-29T07:44:25;102083.53;;;19.03;48.67
19795;BME280;10057;59.402;17.866;2022-07-29T07:46:52;102087.72;;;19.09;48.55
19795;BME280;10057;59.402;17.866;2022-07-29T07:49:20;102074.13;;;19.12;48.23
19795;BME280;10057;59.402;17.866;2022-07-29T07:51:47;102077.28;;;19.20;47.92
19795;BME280;10057;59.402;17.866;2022-07-29T07:54:16;102078.78;;;19.26;47.87
19795;BME280;10057;59.402;17.866;2022-07-29T07:56:46;102079.34;;;19.32;47.80
19795;BME280;10057;59.402;17.866;2022-07-29T07:59:18;102079.88;;;19.39;47.88
19795;BME280;10057;59.402;17.866;2022-07-29T08:01:45;102079.53;;;19.45;47.89
19795;BME280;10057;59.402;17.866;2022-07-29T08:04:21;102082.00;;;19.50;47.26
19795;BME280;10057;59.402;17.866;2022-07-29T08:06:54;102077.09;;;19.40;47.05
19795;BME280;10057;59.402;17.866;2022-07-29T08:09:24;102081.50;;;19.41;47.08
19795;BME280;10057;59.402;17.866;2022-07-29T08:11:56;102076.69;;;19.48;47.20
19795;BME280;10057;59.402;17.866;2022-07-29T08:14:24;102086.09;;;19.57;47.40
19795;BME280;10057;59.402;17.866;2022-07-29T08:16:51;102086.50;;;19.67;47.23
19795;BME280;10057;59.402;17.866;2022-07-29T08:19:18;102080.69;;;19.74;46.91
19795;BME280;10057;59.402;17.866;2022-07-29T08:21:45;102085.75;;;19.80;46.76
19795;BME280;10057;59.402;17.866;2022-07-29T08:24:11;102078.38;;;19.84;46.59
19795;BME280;10057;59.402;17.866;2022-07-29T08:26:57;102080.72;;;19.90;46.02
19795;BME280;10057;59.402;17.866;2022-07-29T08:29:23;102072.19;;;19.82;45.62
19795;BME280;10057;59.402;17.866;2022-07-29T08:31:50;102073.84;;;19.84;45.96
19795;BME280;10057;59.402;17.866;2022-07-29T08:34:17;102079.66;;;19.93;46.23
19795;BME280;10057;59.402;17.866;2022-07-29T08:36:52;102076.41;;;20.03;46.04
19795;BME280;10057;59.402;17.866;2022-07-29T08:39:18;102073.97;;;20.15;45.35
19795;BME280;10057;59.402;17.866;2022-07-29T08:41:45;102069.88;;;20.23;45.52
19795;BME280;10057;59.402;17.866;2022-07-29T08:44:22;102079.53;;;20.27;45.17
19795;BME280;10057;59.402;17.866;2022-07-29T08:46:56;102075.09;;;20.26;44.59
19795;BME280;10057;59.402;17.866;2022-07-29T08:49:23;102073.78;;;20.18;44.43
19795;BME280;10057;59.402;17.866;2022-07-29T08:51:50;102071.50;;;20.10;44.53
19795;BME280;10057;59.402;17.866;2022-07-29T08:54:18;102072.03;;;20.17;44.77
19795;BME280;10057;59.402;17.866;2022-07-29T08:56:48;102074.75;;;20.32;44.84
19795;BME280;10057;59.402;17.866;2022-07-29T08:59:19;102074.63;;;20.50;44.47
19795;BME280;10057;59.402;17.866;2022-07-29T09:01:51;102075.69;;;20.63;43.91
19795;BME280;10057;59.402;17.866;2022-07-29T09:04:20;102081.88;;;20.65;42.77
19795;BME280;10057;59.402;17.866;2022-07-29T09:06:48;102080.56;;;20.56;42.36
19795;BME280;10057;59.402;17.866;2022-07-29T09:09:15;102079.34;;;20.46;42.15
19795;BME280;10057;59.402;17.866;2022-07-29T09:11:43;102088.38;;;20.45;42.82
19795;BME280;10057;59.402;17.866;2022-07-29T09:14:12;102082.56;;;20.53;42.83
19795;BME280;10057;59.402;17.866;2022-07-29T09:16:53;102075.59;;;20.49;42.34
19795;BME280;10057;59.402;17.866;2022-07-29T09:21:47;102089.59;;;20.40;42.20
19795;BME280;10057;59.402;17.866;2022-07-29T09:24:43;102070.56;;;20.43;42.38
19795;BME280;10057;59.402;17.866;2022-07-29T09:29:38;102069.97;;;20.53;42.00
19795;BME280;10057;59.402;17.866;2022-07-29T09:32:08;102079.25;;;20.48;42.04
19795;BME280;10057;59.402;17.866;2022-07-29T09:34:36;102077.78;;;20.42;42.27
19795;BME280;10057;59.402;17.866;2022-07-29T09:37:03;102080.38;;;20.44;42.46
19795;BME280;10057;59.402;17.866;2022-07-29T09:39:37;102074.81;;;20.47;42.25
19795;BME280;10057;59.402;17.866;2022-07-29T09:42:05;102069.53;;;20.45;42.17
19795;BME280;10057;59.402;17.866;2022-07-29T09:44:51;102065.78;;;20.48;42.18
19795;BME280;10057;59.402;17.866;2022-07-29T09:47:18;102065.09;;;20.60;42.23
19795;BME280;10057;59.402;17.866;2022-07-29T09:52:20;102060.75;;;20.88;41.77
19795;BME280;10057;59.402;17.866;2022-07-29T09:54:47;102064.44;;;21.01;41.88
19795;BME280;10057;59.402;17.866;2022-07-29T09:57:25;102053.44;;;21.20;41.98
19795;BME280;10057;59.402;17.866;2022-07-29T10:00:00;102062.91;;;21.41;41.76
19795;BME280;10057;59.402;17.866;2022-07-29T10:02:31;102058.78;;;21.64;41.52
19795;BME280;10057;59.402;17.866;2022-07-29T10:05:00;102059.72;;;21.77;41.27
19795;BME280;10057;59.402;17.866;2022-07-29T10:07:44;102060.66;;;21.91;41.38
19795;BME280;10057;59.402;17.866;2022-07-29T10:10:25;102057.50;;;21.98;40.87
19795;BME280;10057;59.402;17.866;2022-07-29T10:13:04;102059.53;;;21.95;40.35
19795;BME280;10057;59.402;17.866;2022-07-29T10:15:39;102052.38;;;21.94;40.60
19795;BME280;10057;59.402;17.866;2022-07-29T10:18:08;102054.97;;;22.10;40.75
19795;BME280;10057;59.402;17.866;2022-07-29T10:20:35;102058.44;;;22.26;40.01
19795;BME280;10057;59.402;17.866;2022-07-29T10:23:02;102049.88;;;22.32;39.69
19795;BME280;10057;59.402;17.866;2022-07-29T10:25:29;102055.56;;;22.42;39.39
19795;BME280;10057;59.402;17.866;2022-07-29T10:27:55;102049.94;;;22.45;39.33
19795;BME280;10057;59.402;17.866;2022-07-29T10:30:24;102053.97;;;22.52;39.13
19795;BME280;10057;59.402;17.866;2022-07-29T10:41:50;102049.19;;;23.23;39.61
19795;BME280;10057;59.402;17.866;2022-07-29T10:44:21;102042.25;;;23.44;39.34
19795;BME280;10057;59.402;17.866;2022-07-29T10:46:50;102037.47;;;23.60;39.27
19795;BME280;10057;59.402;17.866;2022-07-29T10:49:22;102039.84;;;23.78;38.84
19795;BME280;10057;59.402;17.866;2022-07-29T10:57:25;102029.19;;;24.00;37.13
19795;BME280;10057;59.402;17.866;2022-07-29T11:02:43;102030.09;;;23.62;37.25
19795;BME280;10057;59.402;17.866;2022-07-29T11:05:12;102033.03;;;23.59;37.57
19795;BME280;10057;59.402;17.866;2022-07-29T11:10:45;102030.00;;;23.77;37.61
19795;BME280;10057;59.402;17.866;2022-07-29T11:16:12;102021.72;;;23.91;36.84
19795;BME280;10057;59.402;17.866;2022-07-29T11:21:43;102016.94;;;23.95;37.60
19795;BME280;10057;59.402;17.866;2022-07-29T11:24:23;102020.47;;;24.08;37.04
19795;BME280;10057;59.402;17.866;2022-07-29T11:27:10;102012.53;;;24.18;36.71
19795;BME280;10057;59.402;17.866;2022-07-29T11:29:50;102015.97;;;24.20;36.84
19795;BME280;10057;59.402;17.866;2022-07-29T11:32:23;102019.22;;;24.25;36.79
19795;BME280;10057;59.402;17.866;2022-07-29T11:35:24;102013.78;;;24.25;36.85
19795;BME280;10057;59.402;17.866;2022-07-29T11:43:47;102012.78;;;24.02;36.70
19795;BME280;10057;59.402;17.866;2022-07-29T11:46:41;102012.41;;;24.19;37.04
19795;BME280;10057;59.402;17.866;2022-07-29T11:49:05;102017.63;;;24.46;36.74
19795;BME280;10057;59.402;17.866;2022-07-29T11:51:36;102019.69;;;24.67;36.35
19795;BME280;10057;59.402;17.866;2022-07-29T11:54:16;102016.75;;;24.81;35.68
19795;BME280;10057;59.402;17.866;2022-07-29T11:56:53;102027.63;;;24.81;35.16
19795;BME280;10057;59.402;17.866;2022-07-29T11:59:20;102025.38;;;24.75;34.72
19795;BME280;10057;59.402;17.866;2022-07-29T12:01:58;102021.13;;;24.59;34.43
19795;BME280;10057;59.402;17.866;2022-07-29T12:04:56;102014.69;;;24.49;34.86
19795;BME280;10057;59.402;17.866;2022-07-29T12:07:30;102016.56;;;24.60;35.00
19795;BME280;10057;59.402;17.866;2022-07-29T12:10:01;102017.13;;;24.76;34.33
19795;BME280;10057;59.402;17.866;2022-07-29T12:12:28;102017.03;;;24.89;34.42
19795;BME280;10057;59.402;17.866;2022-07-29T12:14:55;102013.34;;;25.01;34.49
19795;BME280;10057;59.402;17.866;2022-07-29T12:17:26;102011.97;;;25.20;35.01
19795;BME280;10057;59.402;17.866;2022-07-29T12:19:59;102012.09;;;25.41;34.82
19795;BME280;10057;59.402;17.866;2022-07-29T12:22:32;102004.41;;;25.57;34.91
19795;BME280;10057;59.402;17.866;2022-07-29T12:28:00;102002.78;;;25.77;34.75
19795;BME280;10057;59.402;17.866;2022-07-29T12:30:44;102003.44;;;25.92;34.15
19795;BME280;10057;59.402;17.866;2022-07-29T12:35:57;101995.47;;;26.11;33.89
19795;BME280;10057;59.402;17.866;2022-07-29T12:38:36;101991.13;;;26.20;33.94
19795;BME280;10057;59.402;17.866;2022-07-29T12:41:03;101993.84;;;26.20;33.70
19795;BME280;10057;59.402;17.866;2022-07-29T12:43:30;101992.34;;;26.27;33.31
19795;BME280;10057;59.402;17.866;2022-07-29T12:45:57;101990.34;;;26.29;33.39
19795;BME280;10057;59.402;17.866;2022-07-29T12:48:42;101991.31;;;26.39;33.15
19795;BME280;10057;59.402;17.866;2022-07-29T12:51:10;101993.63;;;26.44;33.14
19795;BME280;10057;59.402;17.866;2022-07-29T12:53:39;101994.75;;;26.41;32.73
19795;BME280;10057;59.402;17.866;2022-07-29T12:56:06;101987.09;;;26.35;32.65
19795;BME280;10057;59.402;17.866;2022-07-29T12:59:20;101983.75;;;26.43;32.59
19795;BME280;10057;59.402;17.866;2022-07-29T13:01:50;101982.53;;;26.47;32.48
19795;BME280;10057;59.402;17.866;2022-07-29T13:04:26;101985.50;;;26.65;32.56
19795;BME280;10057;59.402;17.866;2022-07-29T13:07:03;101980.91;;;26.86;32.09
19795;BME280;10057;59.402;17.866;2022-07-29T13:09:37;101983.84;;;26.94;31.89
19795;BME280;10057;59.402;17.866;2022-07-29T13:12:09;101975.69;;;26.94;32.12
19795;BME280;10057;59.402;17.866;2022-07-29T13:14:39;101969.25;;;27.16;31.43
19795;BME280;10057;59.402;17.866;2022-07-29T13:17:09;101970.94;;;27.17;29.71
19795;BME280;10057;59.402;17.866;2022-07-29T13:20:03;101973.28;;;26.80;29.83
19795;BME280;10057;59.402;17.866;2022-07-29T13:22:34;101976.00;;;26.80;30.62
19795;BME280;10057;59.402;17.866;2022-07-29T13:25:01;101978.47;;;26.83;29.96
19795;BME280;10057;59.402;17.866;2022-07-29T13:27:30;101977.59;;;26.83;29.63
19795;BME280;10057;59.402;17.866;2022-07-29T13:30:07;101977.94;;;26.89;29.67
19795;BME280;10057;59.402;17.866;2022-07-29T13:32:35;101971.16;;;27.05;29.18
19795;BME280;10057;59.402;17.866;2022-07-29T13:35:07;101972.13;;;27.15;29.03
19795;BME280;10057;59.402;17.866;2022-07-29T13:37:35;101963.84;;;27.26;29.17
19795;BME280;10057;59.402;17.866;2022-07-29T13:40:09;101965.75;;;27.45;28.36
19795;BME280;10057;59.402;17.866;2022-07-29T13:42:36;101965.38;;;27.50;28.26
19795;BME280;10057;59.402;17.866;2022-07-29T13:45:04;101958.72;;;27.33;27.88
19795;BME280;10057;59.402;17.866;2022-07-29T13:47:31;101954.38;;;27.30;28.76
19795;BME280;10057;59.402;17.866;2022-07-29T13:50:00;101947.59;;;27.55;28.50
19795;BME280;10057;59.402;17.866;2022-07-29T13:52:27;101953.63;;;27.49;27.63
19795;BME280;10057;59.402;17.866;2022-07-29T13:54:54;101947.34;;;27.28;27.78
19795;BME280;10057;59.402;17.866;2022-07-29T13:57:20;101947.91;;;27.01;27.41